UKOO/ODS METAR and TAF weather

Enter ICAO airport designator
Station Type Date Time Source
UKOO METAR 2022/01/29 12:30 UTC NOAA

UKOO 291230Z 30008MPS 9999 BKN043 02/M03 Q1019 NOSIG


Station Type Date Time Source
UKOO Decoded METAR 2022/01/29 12:30 UTC NOAA

Odesa, Ukraine (UKOO) 46-26N 030-46E 42M
Jan 29, 2022 - 07:30 AM EST / 2022.01.29 1230 UTC
Wind: from the WNW (300 degrees) at 18 MPH (16 KT):0
Visibility: greater than 7 mile(s):0
Sky conditions: mostly cloudy
Temperature: 35 F (2 C)
Windchill: 24 F (-4 C):1
Dew Point: 26 F (-3 C)
Relative Humidity: 69%
Pressure (altimeter): 30.09 in. Hg (1019 hPa)
ob: UKOO 291230Z 30008MPS 9999 BKN043 02/M03 Q1019 NOSIG
cycle: 12

Station Type Date Time Source
UKOO TAF 2022/01/29 12:12 UTC NOAA

TAF UKOO 291105Z 2912/3012 30008G14MPS 6000 BKN007 SCT020CB TX03/2912Z TNM04/3003Z
BECMG 2918/2919 24006G12MPS 2500 BR SCT004 BKN007 SCT015CB
TEMPO 3006/3012 1200 SHRASN BR BKN004 BKN013CB

Example: see airport list